sensor_id;sensor_type;location;lat;lon;timestamp;temperature;humidity
30694;DHT22;17446;48.022;-1.740;2022-12-07T00:01:14;5.50;99.90
30694;DHT22;17446;48.022;-1.740;2022-12-07T00:03:41;5.50;99.90
30694;DHT22;17446;48.022;-1.740;2022-12-07T00:06:09;5.40;99.90
30694;DHT22;17446;48.022;-1.740;2022-12-07T00:08:36;5.40;99.90
30694;DHT22;17446;48.022;-1.740;2022-12-07T00:11:07;5.40;99.90
30694;DHT22;17446;48.022;-1.740;2022-12-07T00:13:34;5.30;99.90
30694;DHT22;17446;48.022;-1.740;2022-12-07T00:16:02;5.30;99.90
30694;DHT22;17446;48.022;-1.740;2022-12-07T00:18:27;5.20;99.90
30694;DHT22;17446;48.022;-1.740;2022-12-07T00:20:53;5.20;99.90
30694;DHT22;17446;48.022;-1.740;2022-12-07T00:23:23;5.10;99.90
30694;DHT22;17446;48.022;-1.740;2022-12-07T00:25:49;5.10;99.90
30694;DHT22;17446;48.022;-1.740;2022-12-07T00:28:15;5.10;99.90
30694;DHT22;17446;48.022;-1.740;2022-12-07T00:30:40;5.00;99.90
30694;DHT22;17446;48.022;-1.740;2022-12-07T00:33:06;5.00;99.90
30694;DHT22;17446;48.022;-1.740;2022-12-07T00:35:31;5.00;99.90
30694;DHT22;17446;48.022;-1.740;2022-12-07T00:37:57;5.00;99.90
30694;DHT22;17446;48.022;-1.740;2022-12-07T00:40:22;5.00;99.90
30694;DHT22;17446;48.022;-1.740;2022-12-07T00:42:48;5.00;99.90
30694;DHT22;17446;48.022;-1.740;2022-12-07T00:45:14;5.00;99.90
30694;DHT22;17446;48.022;-1.740;2022-12-07T00:47:39;5.00;99.90
30694;DHT22;17446;48.022;-1.740;2022-12-07T00:50:05;5.00;99.90
30694;DHT22;17446;48.022;-1.740;2022-12-07T00:52:31;5.00;99.90
30694;DHT22;17446;48.022;-1.740;2022-12-07T00:54:56;5.00;99.90
30694;DHT22;17446;48.022;-1.740;2022-12-07T00:57:22;4.90;99.90
30694;DHT22;17446;48.022;-1.740;2022-12-07T00:59:48;4.90;99.90
30694;DHT22;17446;48.022;-1.740;2022-12-07T01:02:14;4.90;99.90
30694;DHT22;17446;48.022;-1.740;2022-12-07T01:04:39;4.80;99.90
30694;DHT22;17446;48.022;-1.740;2022-12-07T01:07:05;4.80;99.90
30694;DHT22;17446;48.022;-1.740;2022-12-07T01:09:31;4.80;99.90
30694;DHT22;17446;48.022;-1.740;2022-12-07T01:11:56;4.80;99.90
30694;DHT22;17446;48.022;-1.740;2022-12-07T01:14:22;4.70;99.90
30694;DHT22;17446;48.022;-1.740;2022-12-07T01:16:47;4.70;99.90
30694;DHT22;17446;48.022;-1.740;2022-12-07T01:19:13;4.60;99.90
30694;DHT22;17446;48.022;-1.740;2022-12-07T01:21:39;4.60;99.90
30694;DHT22;17446;48.022;-1.740;2022-12-07T01:24:08;4.50;99.90
30694;DHT22;17446;48.022;-1.740;2022-12-07T01:26:34;4.50;99.90
30694;DHT22;17446;48.022;-1.740;2022-12-07T01:29:00;4.50;99.90
30694;DHT22;17446;48.022;-1.740;2022-12-07T01:31:27;4.50;99.90
30694;DHT22;17446;48.022;-1.740;2022-12-07T01:33:56;4.40;99.90
30694;DHT22;17446;48.022;-1.740;2022-12-07T01:36:31;4.40;99.90
30694;DHT22;17446;48.022;-1.740;2022-12-07T01:39:00;4.40;99.90
30694;DHT22;17446;48.022;-1.740;2022-12-07T01:41:29;4.30;99.90
30694;DHT22;17446;48.022;-1.740;2022-12-07T01:45:15;4.30;99.90
30694;DHT22;17446;48.022;-1.740;2022-12-07T01:47:10;4.30;99.90
30694;DHT22;17446;48.022;-1.740;2022-12-07T01:49:42;4.30;99.90
30694;DHT22;17446;48.022;-1.740;2022-12-07T01:52:20;4.20;99.90
30694;DHT22;17446;48.022;-1.740;2022-12-07T01:54:50;4.20;99.90
30694;DHT22;17446;48.022;-1.740;2022-12-07T01:57:17;4.20;99.90
30694;DHT22;17446;48.022;-1.740;2022-12-07T01:59:45;4.20;99.90
30694;DHT22;17446;48.022;-1.740;2022-12-07T02:02:19;4.20;99.90
30694;DHT22;17446;48.022;-1.740;2022-12-07T02:04:45;4.20;99.90
30694;DHT22;17446;48.022;-1.740;2022-12-07T02:07:12;4.20;99.90
30694;DHT22;17446;48.022;-1.740;2022-12-07T02:09:38;4.10;99.90
30694;DHT22;17446;48.022;-1.740;2022-12-07T02:12:04;4.10;99.90
30694;DHT22;17446;48.022;-1.740;2022-12-07T02:14:30;4.10;99.90
30694;DHT22;17446;48.022;-1.740;2022-12-07T02:17:14;4.10;99.90
30694;DHT22;17446;48.022;-1.740;2022-12-07T02:22:45;4.00;99.90
30694;DHT22;17446;48.022;-1.740;2022-12-07T02:28:28;3.90;99.90
30694;DHT22;17446;48.022;-1.740;2022-12-07T02:30:57;3.80;99.90
30694;DHT22;17446;48.022;-1.740;2022-12-07T02:33:58;3.80;99.90
30694;DHT22;17446;48.022;-1.740;2022-12-07T02:36:24;3.80;99.90
30694;DHT22;17446;48.022;-1.740;2022-12-07T02:40:22;3.80;99.90
30694;DHT22;17446;48.022;-1.740;2022-12-07T02:42:23;3.80;99.90
30694;DHT22;17446;48.022;-1.740;2022-12-07T02:44:51;3.80;99.90
30694;DHT22;17446;48.022;-1.740;2022-12-07T02:47:19;3.80;99.90
30694;DHT22;17446;48.022;-1.740;2022-12-07T02:49:46;3.80;99.90
30694;DHT22;17446;48.022;-1.740;2022-12-07T02:52:12;3.80;99.90
30694;DHT22;17446;48.022;-1.740;2022-12-07T02:54:38;3.90;99.90
30694;DHT22;17446;48.022;-1.740;2022-12-07T03:05:49;3.80;99.90
30694;DHT22;17446;48.022;-1.740;2022-12-07T03:11:04;3.80;99.90
30694;DHT22;17446;48.022;-1.740;2022-12-07T03:13:51;3.90;99.90
30694;DHT22;17446;48.022;-1.740;2022-12-07T03:16:40;3.80;99.90
30694;DHT22;17446;48.022;-1.740;2022-12-07T03:19:15;3.80;99.90
30694;DHT22;17446;48.022;-1.740;2022-12-07T03:21:46;3.80;99.90
30694;DHT22;17446;48.022;-1.740;2022-12-07T03:24:17;3.70;99.90
30694;DHT22;17446;48.022;-1.740;2022-12-07T03:26:48;3.80;99.90
30694;DHT22;17446;48.022;-1.740;2022-12-07T03:29:21;3.70;99.90
30694;DHT22;17446;48.022;-1.740;2022-12-07T03:31:58;3.70;99.90
30694;DHT22;17446;48.022;-1.740;2022-12-07T03:34:48;3.70;99.90
30694;DHT22;17446;48.022;-1.740;2022-12-07T03:37:21;3.70;99.90
30694;DHT22;17446;48.022;-1.740;2022-12-07T03:40:10;3.70;99.90
30694;DHT22;17446;48.022;-1.740;2022-12-07T03:42:36;3.60;99.90
30694;DHT22;17446;48.022;-1.740;2022-12-07T03:45:04;3.60;99.90
30694;DHT22;17446;48.022;-1.740;2022-12-07T03:47:35;3.60;99.90
30694;DHT22;17446;48.022;-1.740;2022-12-07T03:50:28;3.60;99.90
30694;DHT22;17446;48.022;-1.740;2022-12-07T03:53:02;3.60;99.90
30694;DHT22;17446;48.022;-1.740;2022-12-07T03:55:35;3.50;99.90
30694;DHT22;17446;48.022;-1.740;2022-12-07T03:58:06;3.50;99.90
30694;DHT22;17446;48.022;-1.740;2022-12-07T04:00:32;3.50;99.90
30694;DHT22;17446;48.022;-1.740;2022-12-07T04:02:58;3.50;99.90
30694;DHT22;17446;48.022;-1.740;2022-12-07T04:05:24;3.50;99.90
30694;DHT22;17446;48.022;-1.740;2022-12-07T04:07:50;3.50;99.90
30694;DHT22;17446;48.022;-1.740;2022-12-07T04:10:16;3.40;99.90
30694;DHT22;17446;48.022;-1.740;2022-12-07T04:12:42;3.40;99.90
30694;DHT22;17446;48.022;-1.740;2022-12-07T04:15:08;3.40;99.90
30694;DHT22;17446;48.022;-1.740;2022-12-07T04:17:34;3.40;99.90
30694;DHT22;17446;48.022;-1.740;2022-12-07T04:20:00;3.40;99.90
30694;DHT22;17446;48.022;-1.740;2022-12-07T04:22:25;3.40;99.90
30694;DHT22;17446;48.022;-1.740;2022-12-07T04:24:51;3.30;99.90
30694;DHT22;17446;48.022;-1.740;2022-12-07T04:27:16;3.30;99.90
30694;DHT22;17446;48.022;-1.740;2022-12-07T04:29:42;3.30;99.90
30694;DHT22;17446;48.022;-1.740;2022-12-07T04:32:08;3.30;99.90
30694;DHT22;17446;48.022;-1.740;2022-12-07T04:34:33;3.30;99.90
30694;DHT22;17446;48.022;-1.740;2022-12-07T04:36:59;3.30;99.90
30694;DHT22;17446;48.022;-1.740;2022-12-07T04:39:29;3.20;99.90
30694;DHT22;17446;48.022;-1.740;2022-12-07T04:41:55;3.20;99.90
30694;DHT22;17446;48.022;-1.740;2022-12-07T04:44:22;3.20;99.90
30694;DHT22;17446;48.022;-1.740;2022-12-07T04:46:48;3.20;99.90
30694;DHT22;17446;48.022;-1.740;2022-12-07T04:49:14;3.20;99.90
30694;DHT22;17446;48.022;-1.740;2022-12-07T04:51:40;3.20;99.90
30694;DHT22;17446;48.022;-1.740;2022-12-07T04:54:07;3.10;99.90
30694;DHT22;17446;48.022;-1.740;2022-12-07T04:56:33;3.10;99.90
30694;DHT22;17446;48.022;-1.740;2022-12-07T04:59:01;3.10;99.90
30694;DHT22;17446;48.022;-1.740;2022-12-07T05:01:27;3.10;99.90
30694;DHT22;17446;48.022;-1.740;2022-12-07T05:03:53;3.10;99.90
30694;DHT22;17446;48.022;-1.740;2022-12-07T05:06:18;3.00;99.90
30694;DHT22;17446;48.022;-1.740;2022-12-07T05:08:44;3.10;99.90
30694;DHT22;17446;48.022;-1.740;2022-12-07T05:11:10;3.10;99.90
30694;DHT22;17446;48.022;-1.740;2022-12-07T05:14:00;3.10;99.90
30694;DHT22;17446;48.022;-1.740;2022-12-07T05:16:26;3.10;99.90
30694;DHT22;17446;48.022;-1.740;2022-12-07T05:18:52;3.00;99.90
30694;DHT22;17446;48.022;-1.740;2022-12-07T05:21:18;3.00;99.90
30694;DHT22;17446;48.022;-1.740;2022-12-07T05:23:44;3.00;99.90
30694;DHT22;17446;48.022;-1.740;2022-12-07T05:26:09;3.00;99.90
30694;DHT22;17446;48.022;-1.740;2022-12-07T05:28:35;3.00;99.90
30694;DHT22;17446;48.022;-1.740;2022-12-07T05:31:01;3.00;99.90
30694;DHT22;17446;48.022;-1.740;2022-12-07T05:33:26;3.00;99.90
30694;DHT22;17446;48.022;-1.740;2022-12-07T05:35:52;3.00;99.90
30694;DHT22;17446;48.022;-1.740;2022-12-07T05:38:17;2.90;99.90
30694;DHT22;17446;48.022;-1.740;2022-12-07T05:40:43;2.90;99.90
30694;DHT22;17446;48.022;-1.740;2022-12-07T05:43:09;2.90;99.90
30694;DHT22;17446;48.022;-1.740;2022-12-07T05:45:34;2.90;99.90
30694;DHT22;17446;48.022;-1.740;2022-12-07T05:48:00;2.80;99.90
30694;DHT22;17446;48.022;-1.740;2022-12-07T05:50:25;2.90;99.90
30694;DHT22;17446;48.022;-1.740;2022-12-07T05:52:51;2.80;99.90
30694;DHT22;17446;48.022;-1.740;2022-12-07T05:55:17;2.80;99.90
30694;DHT22;17446;48.022;-1.740;2022-12-07T05:57:42;2.80;99.90
30694;DHT22;17446;48.022;-1.740;2022-12-07T06:00:31;2.80;99.90
30694;DHT22;17446;48.022;-1.740;2022-12-07T06:02:57;2.80;99.90
30694;DHT22;17446;48.022;-1.740;2022-12-07T06:05:22;2.80;99.90
30694;DHT22;17446;48.022;-1.740;2022-12-07T06:07:48;2.70;99.90
30694;DHT22;17446;48.022;-1.740;2022-12-07T06:10:14;2.70;99.90
30694;DHT22;17446;48.022;-1.740;2022-12-07T06:12:39;2.70;99.90
30694;DHT22;17446;48.022;-1.740;2022-12-07T06:15:08;2.70;99.90
30694;DHT22;17446;48.022;-1.740;2022-12-07T06:17:34;2.70;99.90
30694;DHT22;17446;48.022;-1.740;2022-12-07T06:19:59;2.70;99.90
30694;DHT22;17446;48.022;-1.740;2022-12-07T06:22:25;2.70;99.90
30694;DHT22;17446;48.022;-1.740;2022-12-07T06:24:51;2.60;99.90
30694;DHT22;17446;48.022;-1.740;2022-12-07T06:27:16;2.50;99.90
30694;DHT22;17446;48.022;-1.740;2022-12-07T06:29:42;2.40;99.90
30694;DHT22;17446;48.022;-1.740;2022-12-07T06:32:08;2.40;99.90
30694;DHT22;17446;48.022;-1.740;2022-12-07T06:34:34;2.40;99.90
30694;DHT22;17446;48.022;-1.740;2022-12-07T06:37:00;2.40;99.90
30694;DHT22;17446;48.022;-1.740;2022-12-07T06:39:27;2.40;99.90
30694;DHT22;17446;48.022;-1.740;2022-12-07T06:41:53;2.50;99.90
30694;DHT22;17446;48.022;-1.740;2022-12-07T06:44:19;2.60;99.90
30694;DHT22;17446;48.022;-1.740;2022-12-07T06:46:45;2.70;99.90
30694;DHT22;17446;48.022;-1.740;2022-12-07T06:49:11;2.70;99.90
30694;DHT22;17446;48.022;-1.740;2022-12-07T06:51:37;2.80;99.90
30694;DHT22;17446;48.022;-1.740;2022-12-07T06:54:07;2.80;99.90
30694;DHT22;17446;48.022;-1.740;2022-12-07T06:56:33;2.90;99.90
30694;DHT22;17446;48.022;-1.740;2022-12-07T06:58:58;2.90;99.90
30694;DHT22;17446;48.022;-1.740;2022-12-07T07:01:24;3.00;99.90
30694;DHT22;17446;48.022;-1.740;2022-12-07T07:03:49;3.00;99.90
30694;DHT22;17446;48.022;-1.740;2022-12-07T07:06:15;3.00;99.90
30694;DHT22;17446;48.022;-1.740;2022-12-07T07:08:41;3.00;99.90
30694;DHT22;17446;48.022;-1.740;2022-12-07T07:11:07;3.00;99.90
30694;DHT22;17446;48.022;-1.740;2022-12-07T07:13:33;3.00;99.90
30694;DHT22;17446;48.022;-1.740;2022-12-07T07:15:59;3.00;99.90
30694;DHT22;17446;48.022;-1.740;2022-12-07T07:18:25;3.00;99.90
30694;DHT22;17446;48.022;-1.740;2022-12-07T07:20:52;3.00;99.90
30694;DHT22;17446;48.022;-1.740;2022-12-07T07:23:19;3.00;99.90
30694;DHT22;17446;48.022;-1.740;2022-12-07T07:25:45;3.10;99.90
30694;DHT22;17446;48.022;-1.740;2022-12-07T07:28:10;3.00;99.90
30694;DHT22;17446;48.022;-1.740;2022-12-07T07:30:36;2.90;99.90
30694;DHT22;17446;48.022;-1.740;2022-12-07T07:33:03;2.90;99.90
30694;DHT22;17446;48.022;-1.740;2022-12-07T07:35:31;2.90;99.90
30694;DHT22;17446;48.022;-1.740;2022-12-07T07:37:57;2.90;99.90
30694;DHT22;17446;48.022;-1.740;2022-12-07T07:40:23;3.00;99.90
30694;DHT22;17446;48.022;-1.740;2022-12-07T07:42:50;3.00;99.90
30694;DHT22;17446;48.022;-1.740;2022-12-07T07:45:17;3.00;99.90
30694;DHT22;17446;48.022;-1.740;2022-12-07T07:47:43;3.00;99.90
30694;DHT22;17446;48.022;-1.740;2022-12-07T07:50:09;3.00;99.90
30694;DHT22;17446;48.022;-1.740;2022-12-07T07:52:35;3.00;99.90
30694;DHT22;17446;48.022;-1.740;2022-12-07T07:55:00;3.10;99.90
30694;DHT22;17446;48.022;-1.740;2022-12-07T07:57:26;3.20;99.90
30694;DHT22;17446;48.022;-1.740;2022-12-07T07:59:52;3.20;99.90
30694;DHT22;17446;48.022;-1.740;2022-12-07T08:02:19;3.20;99.90
30694;DHT22;17446;48.022;-1.740;2022-12-07T08:04:45;3.20;99.90
30694;DHT22;17446;48.022;-1.740;2022-12-07T08:07:12;3.30;99.90
30694;DHT22;17446;48.022;-1.740;2022-12-07T08:09:38;3.20;99.90
30694;DHT22;17446;48.022;-1.740;2022-12-07T08:12:04;3.30;99.90
30694;DHT22;17446;48.022;-1.740;2022-12-07T08:14:29;3.30;99.90
30694;DHT22;17446;48.022;-1.740;2022-12-07T08:16:55;3.40;99.90
30694;DHT22;17446;48.022;-1.740;2022-12-07T08:19:21;3.40;99.90
30694;DHT22;17446;48.022;-1.740;2022-12-07T08:21:47;3.50;99.90
30694;DHT22;17446;48.022;-1.740;2022-12-07T08:24:13;3.50;99.90
30694;DHT22;17446;48.022;-1.740;2022-12-07T08:26:38;3.50;99.90
30694;DHT22;17446;48.022;-1.740;2022-12-07T08:29:04;3.50;99.90
30694;DHT22;17446;48.022;-1.740;2022-12-07T08:31:30;3.60;99.90
30694;DHT22;17446;48.022;-1.740;2022-12-07T08:33:55;3.60;99.90
30694;DHT22;17446;48.022;-1.740;2022-12-07T08:36:21;3.60;99.90
30694;DHT22;17446;48.022;-1.740;2022-12-07T08:38:48;3.70;99.90
30694;DHT22;17446;48.022;-1.740;2022-12-07T08:41:14;3.70;99.90
30694;DHT22;17446;48.022;-1.740;2022-12-07T08:43:40;3.70;99.90
30694;DHT22;17446;48.022;-1.740;2022-12-07T08:46:36;3.80;99.90
30694;DHT22;17446;48.022;-1.740;2022-12-07T08:49:14;3.80;99.90
30694;DHT22;17446;48.022;-1.740;2022-12-07T08:51:41;3.90;99.90
30694;DHT22;17446;48.022;-1.740;2022-12-07T08:54:09;3.90;99.90
30694;DHT22;17446;48.022;-1.740;2022-12-07T08:56:36;3.90;99.90
30694;DHT22;17446;48.022;-1.740;2022-12-07T08:59:02;3.90;99.90
30694;DHT22;17446;48.022;-1.740;2022-12-07T09:01:28;4.00;99.90
30694;DHT22;17446;48.022;-1.740;2022-12-07T09:03:54;4.10;99.90
30694;DHT22;17446;48.022;-1.740;2022-12-07T09:06:20;4.10;99.90
30694;DHT22;17446;48.022;-1.740;2022-12-07T09:08:47;4.20;99.90
30694;DHT22;17446;48.022;-1.740;2022-12-07T09:11:14;4.30;99.90
30694;DHT22;17446;48.022;-1.740;2022-12-07T09:13:39;4.30;99.90
30694;DHT22;17446;48.022;-1.740;2022-12-07T09:16:05;4.40;99.90
30694;DHT22;17446;48.022;-1.740;2022-12-07T09:18:31;4.40;99.90
30694;DHT22;17446;48.022;-1.740;2022-12-07T09:20:57;4.40;99.90
30694;DHT22;17446;48.022;-1.740;2022-12-07T09:23:22;4.40;99.90
30694;DHT22;17446;48.022;-1.740;2022-12-07T09:25:48;4.40;99.90
30694;DHT22;17446;48.022;-1.740;2022-12-07T09:28:14;4.40;99.90
30694;DHT22;17446;48.022;-1.740;2022-12-07T09:30:45;4.30;99.90
30694;DHT22;17446;48.022;-1.740;2022-12-07T09:33:12;4.30;99.90
30694;DHT22;17446;48.022;-1.740;2022-12-07T09:35:37;4.30;99.90
30694;DHT22;17446;48.022;-1.740;2022-12-07T09:38:03;4.30;99.90
30694;DHT22;17446;48.022;-1.740;2022-12-07T09:40:29;4.30;99.90
30694;DHT22;17446;48.022;-1.740;2022-12-07T09:42:55;4.40;99.90
30694;DHT22;17446;48.022;-1.740;2022-12-07T09:45:24;4.40;99.90
30694;DHT22;17446;48.022;-1.740;2022-12-07T09:47:52;4.50;99.90
30694;DHT22;17446;48.022;-1.740;2022-12-07T09:50:25;4.50;99.90
30694;DHT22;17446;48.022;-1.740;2022-12-07T09:52:52;4.60;99.90
30694;DHT22;17446;48.022;-1.740;2022-12-07T09:55:23;4.60;99.90
30694;DHT22;17446;48.022;-1.740;2022-12-07T09:57:50;4.60;99.90
30694;DHT22;17446;48.022;-1.740;2022-12-07T10:00:19;4.70;99.90
30694;DHT22;17446;48.022;-1.740;2022-12-07T10:02:55;4.80;99.90
30694;DHT22;17446;48.022;-1.740;2022-12-07T10:05:46;4.80;99.90
30694;DHT22;17446;48.022;-1.740;2022-12-07T10:08:13;4.90;99.90
30694;DHT22;17446;48.022;-1.740;2022-12-07T10:10:41;4.90;99.90
30694;DHT22;17446;48.022;-1.740;2022-12-07T10:13:11;4.90;99.90
30694;DHT22;17446;48.022;-1.740;2022-12-07T10:23:35;4.90;99.90
30694;DHT22;17446;48.022;-1.740;2022-12-07T10:26:20;4.90;99.90
30694;DHT22;17446;48.022;-1.740;2022-12-07T10:28:47;5.00;99.90
30694;DHT22;17446;48.022;-1.740;2022-12-07T10:31:19;5.00;99.90
30694;DHT22;17446;48.022;-1.740;2022-12-07T10:33:52;5.10;99.90
30694;DHT22;17446;48.022;-1.740;2022-12-07T10:36:36;5.10;99.90
30694;DHT22;17446;48.022;-1.740;2022-12-07T10:39:14;5.20;99.90
30694;DHT22;17446;48.022;-1.740;2022-12-07T10:41:57;5.10;99.90
30694;DHT22;17446;48.022;-1.740;2022-12-07T10:44:29;5.10;99.90
30694;DHT22;17446;48.022;-1.740;2022-12-07T10:55:56;5.30;99.90
30694;DHT22;17446;48.022;-1.740;2022-12-07T11:01:36;5.50;99.90
30694;DHT22;17446;48.022;-1.740;2022-12-07T11:15:33;5.80;99.90
30694;DHT22;17446;48.022;-1.740;2022-12-07T11:25:50;6.00;99.90
30694;DHT22;17446;48.022;-1.740;2022-12-07T11:29:08;6.00;99.90
30694;DHT22;17446;48.022;-1.740;2022-12-07T11:34:00;6.10;99.90
30694;DHT22;17446;48.022;-1.740;2022-12-07T11:36:37;6.00;99.90
30694;DHT22;17446;48.022;-1.740;2022-12-07T11:41:41;6.00;99.90
30694;DHT22;17446;48.022;-1.740;2022-12-07T11:46:59;6.00;99.90
30694;DHT22;17446;48.022;-1.740;2022-12-07T11:52:25;6.00;99.90
30694;DHT22;17446;48.022;-1.740;2022-12-07T11:54:53;6.00;99.90
30694;DHT22;17446;48.022;-1.740;2022-12-07T11:57:32;6.00;99.90
30694;DHT22;17446;48.022;-1.740;2022-12-07T12:00:05;5.90;99.90
30694;DHT22;17446;48.022;-1.740;2022-12-07T12:02:37;6.00;99.90
30694;DHT22;17446;48.022;-1.740;2022-12-07T12:07:42;6.20;99.90
30694;DHT22;17446;48.022;-1.740;2022-12-07T12:16:04;6.40;99.90
30694;DHT22;17446;48.022;-1.740;2022-12-07T12:18:47;6.50;99.90
30694;DHT22;17446;48.022;-1.740;2022-12-07T12:21:20;6.50;99.90
30694;DHT22;17446;48.022;-1.740;2022-12-07T12:23:55;6.50;99.90
30694;DHT22;17446;48.022;-1.740;2022-12-07T12:26:25;6.50;99.90
30694;DHT22;17446;48.022;-1.740;2022-12-07T12:29:05;6.50;99.90
30694;DHT22;17446;48.022;-1.740;2022-12-07T12:31:37;6.40;99.90
30694;DHT22;17446;48.022;-1.740;2022-12-07T12:34:41;6.40;99.90
30694;DHT22;17446;48.022;-1.740;2022-12-07T12:42:54;6.10;99.90
30694;DHT22;17446;48.022;-1.740;2022-12-07T12:45:29;6.10;99.90
30694;DHT22;17446;48.022;-1.740;2022-12-07T12:48:01;6.10;99.90
30694;DHT22;17446;48.022;-1.740;2022-12-07T12:50:28;6.20;99.90
30694;DHT22;17446;48.022;-1.740;2022-12-07T12:55:22;6.40;99.90
30694;DHT22;17446;48.022;-1.740;2022-12-07T13:00:43;6.40;99.90
30694;DHT22;17446;48.022;-1.740;2022-12-07T13:03:24;6.30;99.90
30694;DHT22;17446;48.022;-1.740;2022-12-07T13:09:19;6.20;99.90
30694;DHT22;17446;48.022;-1.740;2022-12-07T13:11:47;6.10;99.90
30694;DHT22;17446;48.022;-1.740;2022-12-07T13:17:00;6.10;99.90
30694;DHT22;17446;48.022;-1.740;2022-12-07T13:25:07;6.20;99.90
30694;DHT22;17446;48.022;-1.740;2022-12-07T13:27:37;6.20;99.90
30694;DHT22;17446;48.022;-1.740;2022-12-07T13:30:20;6.20;99.90
30694;DHT22;17446;48.022;-1.740;2022-12-07T13:32:57;6.20;99.90
30694;DHT22;17446;48.022;-1.740;2022-12-07T13:35:36;6.20;99.90
30694;DHT22;17446;48.022;-1.740;2022-12-07T13:38:15;6.20;99.90
30694;DHT22;17446;48.022;-1.740;2022-12-07T13:40:42;6.20;99.90
30694;DHT22;17446;48.022;-1.740;2022-12-07T13:43:15;6.20;99.90
30694;DHT22;17446;48.022;-1.740;2022-12-07T13:45:42;6.20;99.90
30694;DHT22;17446;48.022;-1.740;2022-12-07T13:50:53;6.30;99.90
30694;DHT22;17446;48.022;-1.740;2022-12-07T13:53:20;6.30;99.90
30694;DHT22;17446;48.022;-1.740;2022-12-07T13:55:46;6.30;99.90
30694;DHT22;17446;48.022;-1.740;2022-12-07T13:58:12;6.30;99.90
30694;DHT22;17446;48.022;-1.740;2022-12-07T14:00:40;6.30;99.90
30694;DHT22;17446;48.022;-1.740;2022-12-07T14:05:39;6.30;99.90
30694;DHT22;17446;48.022;-1.740;2022-12-07T14:08:22;6.30;99.90
30694;DHT22;17446;48.022;-1.740;2022-12-07T14:16:01;6.40;99.90
30694;DHT22;17446;48.022;-1.740;2022-12-07T14:18:37;6.40;99.90
30694;DHT22;17446;48.022;-1.740;2022-12-07T14:21:22;6.30;99.90
30694;DHT22;17446;48.022;-1.740;2022-12-07T14:26:32;6.40;99.90
30694;DHT22;17446;48.022;-1.740;2022-12-07T14:31:52;6.40;99.90
30694;DHT22;17446;48.022;-1.740;2022-12-07T14:34:22;6.40;99.90
30694;DHT22;17446;48.022;-1.740;2022-12-07T14:36:47;6.40;99.90
30694;DHT22;17446;48.022;-1.740;2022-12-07T14:39:13;6.40;99.90
30694;DHT22;17446;48.022;-1.740;2022-12-07T14:41:39;6.40;99.90
30694;DHT22;17446;48.022;-1.740;2022-12-07T14:44:21;6.40;99.90
30694;DHT22;17446;48.022;-1.740;2022-12-07T14:46:48;6.40;99.90
30694;DHT22;17446;48.022;-1.740;2022-12-07T14:49:14;6.40;99.90
30694;DHT22;17446;48.022;-1.740;2022-12-07T14:51:40;6.40;99.90
30694;DHT22;17446;48.022;-1.740;2022-12-07T14:54:15;6.40;99.90
30694;DHT22;17446;48.022;-1.740;2022-12-07T14:56:41;6.40;99.90
30694;DHT22;17446;48.022;-1.740;2022-12-07T14:59:07;6.40;99.90
30694;DHT22;17446;48.022;-1.740;2022-12-07T15:01:33;6.50;99.90
30694;DHT22;17446;48.022;-1.740;2022-12-07T15:03:59;6.50;99.90
30694;DHT22;17446;48.022;-1.740;2022-12-07T15:06:24;6.40;99.90
30694;DHT22;17446;48.022;-1.740;2022-12-07T15:08:50;6.50;99.90
30694;DHT22;17446;48.022;-1.740;2022-12-07T15:11:17;6.40;99.90
30694;DHT22;17446;48.022;-1.740;2022-12-07T15:13:43;6.40;99.90
30694;DHT22;17446;48.022;-1.740;2022-12-07T15:16:27;6.40;99.90
30694;DHT22;17446;48.022;-1.740;2022-12-07T15:18:53;6.40;99.90
30694;DHT22;17446;48.022;-1.740;2022-12-07T15:21:18;6.40;99.90
30694;DHT22;17446;48.022;-1.740;2022-12-07T15:23:46;6.40;99.90
30694;DHT22;17446;48.022;-1.740;2022-12-07T15:26:12;6.40;99.90
30694;DHT22;17446;48.022;-1.740;2022-12-07T15:28:39;6.30;99.90
30694;DHT22;17446;48.022;-1.740;2022-12-07T15:31:10;6.30;99.90
30694;DHT22;17446;48.022;-1.740;2022-12-07T15:33:35;6.30;99.90
30694;DHT22;17446;48.022;-1.740;2022-12-07T15:36:01;6.30;99.90
30694;DHT22;17446;48.022;-1.740;2022-12-07T15:38:26;6.20;99.90
30694;DHT22;17446;48.022;-1.740;2022-12-07T15:40:53;6.20;99.90
30694;DHT22;17446;48.022;-1.740;2022-12-07T15:43:19;6.20;99.90
30694;DHT22;17446;48.022;-1.740;2022-12-07T15:46:03;6.10;99.90
30694;DHT22;17446;48.022;-1.740;2022-12-07T15:48:29;6.10;99.90
30694;DHT22;17446;48.022;-1.740;2022-12-07T15:51:08;6.10;99.90
30694;DHT22;17446;48.022;-1.740;2022-12-07T15:53:35;6.10;99.90
30694;DHT22;17446;48.022;-1.740;2022-12-07T15:56:01;6.00;99.90
30694;DHT22;17446;48.022;-1.740;2022-12-07T15:58:26;6.00;99.90
30694;DHT22;17446;48.022;-1.740;2022-12-07T16:00:52;6.00;99.90
30694;DHT22;17446;48.022;-1.740;2022-12-07T16:03:18;5.90;99.90
30694;DHT22;17446;48.022;-1.740;2022-12-07T16:05:49;5.90;99.90
30694;DHT22;17446;48.022;-1.740;2022-12-07T16:08:15;5.90;99.90
30694;DHT22;17446;48.022;-1.740;2022-12-07T16:10:41;5.80;99.90
30694;DHT22;17446;48.022;-1.740;2022-12-07T16:13:11;5.70;99.90
30694;DHT22;17446;48.022;-1.740;2022-12-07T16:15:39;5.70;99.90
30694;DHT22;17446;48.022;-1.740;2022-12-07T16:18:05;5.60;99.90
30694;DHT22;17446;48.022;-1.740;2022-12-07T16:20:31;5.50;99.90
30694;DHT22;17446;48.022;-1.740;2022-12-07T16:22:56;5.50;99.90
30694;DHT22;17446;48.022;-1.740;2022-12-07T16:25:22;5.50;99.90
30694;DHT22;17446;48.022;-1.740;2022-12-07T16:27:47;5.40;99.90
30694;DHT22;17446;48.022;-1.740;2022-12-07T16:30:14;5.40;99.90
30694;DHT22;17446;48.022;-1.740;2022-12-07T16:32:41;5.30;99.90
30694;DHT22;17446;48.022;-1.740;2022-12-07T16:35:08;5.30;99.90
30694;DHT22;17446;48.022;-1.740;2022-12-07T16:37:33;5.20;99.90
30694;DHT22;17446;48.022;-1.740;2022-12-07T16:39:59;5.20;99.90
30694;DHT22;17446;48.022;-1.740;2022-12-07T16:42:24;5.10;99.90
30694;DHT22;17446;48.022;-1.740;2022-12-07T16:44:50;5.10;99.90
30694;DHT22;17446;48.022;-1.740;2022-12-07T16:47:16;5.00;99.90
30694;DHT22;17446;48.022;-1.740;2022-12-07T16:49:42;5.00;99.90
30694;DHT22;17446;48.022;-1.740;2022-12-07T16:52:08;4.90;99.90
30694;DHT22;17446;48.022;-1.740;2022-12-07T16:54:34;4.90;99.90
30694;DHT22;17446;48.022;-1.740;2022-12-07T16:57:00;4.90;99.90
30694;DHT22;17446;48.022;-1.740;2022-12-07T16:59:26;4.80;99.90
30694;DHT22;17446;48.022;-1.740;2022-12-07T17:01:52;4.80;99.90
30694;DHT22;17446;48.022;-1.740;2022-12-07T17:04:17;4.80;99.90
30694;DHT22;17446;48.022;-1.740;2022-12-07T17:06:43;4.70;99.90
30694;DHT22;17446;48.022;-1.740;2022-12-07T17:09:08;4.70;99.90
30694;DHT22;17446;48.022;-1.740;2022-12-07T17:11:35;4.60;99.90
30694;DHT22;17446;48.022;-1.740;2022-12-07T17:14:01;4.70;99.90
30694;DHT22;17446;48.022;-1.740;2022-12-07T17:16:46;4.60;99.90
30694;DHT22;17446;48.022;-1.740;2022-12-07T17:19:14;4.60;99.90
30694;DHT22;17446;48.022;-1.740;2022-12-07T17:21:40;4.50;99.90
30694;DHT22;17446;48.022;-1.740;2022-12-07T17:24:08;4.50;99.90
30694;DHT22;17446;48.022;-1.740;2022-12-07T17:26:35;4.50;99.90
30694;DHT22;17446;48.022;-1.740;2022-12-07T17:29:02;4.40;99.90
30694;DHT22;17446;48.022;-1.740;2022-12-07T17:31:27;4.40;99.90
30694;DHT22;17446;48.022;-1.740;2022-12-07T17:33:53;4.40;99.90
30694;DHT22;17446;48.022;-1.740;2022-12-07T17:36:24;4.40;99.90